Terminal Aerodrome Forecast
Issued by NWS

Home | Current Version | Previous Version | Text Only | Print | Product List | Glossary On
Versions: 1 2 3 4 5 6 7 8 9 10 11 12 13 14 15 16 17 18 19 20 21 22 23 24 25
000
FTUS42 KRAH 221134
TAFRWI
TAF
KRWI 221134Z 2212/2312 21006KT P6SM BKN007
      TEMPO 2212/2214 3SM BR BKN004
     FM221500 23010KT P6SM BKN015
     FM221800 22011G18KT P6SM FEW008 SCT020 BKN060
     FM222300 22005KT P6SM BKN100
     FM230600 19002KT 6SM BR OVC015
     FM230900 05004KT 3SM BR OVC008 PROB30 2309/2312 2SM -DZ OVC004=

USA.gov is the U.S. government's official web portal to all federal, state and local government web resources and services.